sensor_id;sensor_type;location;lat;lon;timestamp;pressure;altitude;pressure_sealevel;temperature;humidity
50057;BME280;36875;49.468;11.200;2023-09-30T00:00:42;98625.81;;;20.09;57.51
50057;BME280;36875;49.468;11.200;2023-09-30T00:03:07;98636.72;;;20.09;57.59
50057;BME280;36875;49.468;11.200;2023-09-30T00:05:34;98637.84;;;20.08;57.70
50057;BME280;36875;49.468;11.200;2023-09-30T00:07:59;98635.13;;;20.08;57.38
50057;BME280;36875;49.468;11.200;2023-09-30T00:10:25;98636.72;;;20.09;57.51
50057;BME280;36875;49.468;11.200;2023-09-30T00:12:50;98628.84;;;20.07;57.53
50057;BME280;36875;49.468;11.200;2023-09-30T00:15:16;98626.13;;;20.07;57.56
50057;BME280;36875;49.468;11.200;2023-09-30T00:17:41;98620.66;;;20.07;57.66
50057;BME280;36875;49.468;11.200;2023-09-30T00:20:08;98617.09;;;20.07;57.25
50057;BME280;36875;49.468;11.200;2023-09-30T00:22:36;98617.94;;;20.07;57.50
50057;BME280;36875;49.468;11.200;2023-09-30T00:25:01;98617.09;;;20.07;57.54
50057;BME280;36875;49.468;11.200;2023-09-30T00:27:27;98629.66;;;20.08;57.26
50057;BME280;36875;49.468;11.200;2023-09-30T00:29:52;98621.75;;;20.06;57.37
50057;BME280;36875;49.468;11.200;2023-09-30T00:32:18;98627.22;;;20.06;57.45
50057;BME280;36875;49.468;11.200;2023-09-30T00:34:43;98628.31;;;20.05;57.45
50057;BME280;36875;49.468;11.200;2023-09-30T00:37:10;98631.88;;;20.06;57.40
50057;BME280;36875;49.468;11.200;2023-09-30T00:39:37;98631.88;;;20.06;57.50
50057;BME280;36875;49.468;11.200;2023-09-30T00:42:02;98625.56;;;20.05;57.32
50057;BME280;36875;49.468;11.200;2023-09-30T00:44:29;98621.25;;;20.04;57.48
50057;BME280;36875;49.468;11.200;2023-09-30T00:46:56;98631.03;;;20.05;57.39
50057;BME280;36875;49.468;11.200;2023-09-30T00:49:22;98637.34;;;20.06;57.34
50057;BME280;36875;49.468;11.200;2023-09-30T00:51:49;98635.69;;;20.05;57.35
50057;BME280;36875;49.468;11.200;2023-09-30T00:54:15;98632.97;;;20.05;57.53
50057;BME280;36875;49.468;11.200;2023-09-30T00:56:44;98632.16;;;20.04;57.49
50057;BME280;36875;49.468;11.200;2023-09-30T00:59:12;98623.97;;;20.04;57.64
50057;BME280;36875;49.468;11.200;2023-09-30T01:01:38;98634.91;;;20.04;57.41
50057;BME280;36875;49.468;11.200;2023-09-30T01:04:05;98628.63;;;20.03;57.47
50057;BME280;36875;49.468;11.200;2023-09-30T01:06:30;98634.91;;;20.04;57.41
50057;BME280;36875;49.468;11.200;2023-09-30T01:08:57;98628.63;;;20.03;57.43
50057;BME280;36875;49.468;11.200;2023-09-30T01:11:22;98622.34;;;20.03;57.58
50057;BME280;36875;49.468;11.200;2023-09-30T01:13:49;98628.63;;;20.03;57.52
50057;BME280;36875;49.468;11.200;2023-09-30T01:16:15;98627.78;;;20.03;57.40
50057;BME280;36875;49.468;11.200;2023-09-30T01:18:41;98630.53;;;20.03;57.35
50057;BME280;36875;49.468;11.200;2023-09-30T01:21:08;98638.72;;;20.03;57.46
50057;BME280;36875;49.468;11.200;2023-09-30T01:23:35;98633.25;;;20.03;57.38
50057;BME280;36875;49.468;11.200;2023-09-30T01:26:02;98627.00;;;20.02;57.52
50057;BME280;36875;49.468;11.200;2023-09-30T01:28:28;98627.78;;;20.03;57.37
50057;BME280;36875;49.468;11.200;2023-09-30T01:30:54;98631.66;;;20.02;57.29
50057;BME280;36875;49.468;11.200;2023-09-30T01:33:19;98631.66;;;20.02;57.48
50057;BME280;36875;49.468;11.200;2023-09-30T01:35:45;98638.72;;;20.03;57.22
50057;BME280;36875;49.468;11.200;2023-09-30T01:38:10;98628.09;;;20.01;57.55
50057;BME280;36875;49.468;11.200;2023-09-30T01:40:37;98634.38;;;20.02;57.42
50057;BME280;36875;49.468;11.200;2023-09-30T01:43:03;98637.13;;;20.02;57.36
50057;BME280;36875;49.468;11.200;2023-09-30T01:45:28;98639.84;;;20.02;57.48
50057;BME280;36875;49.468;11.200;2023-09-30T01:47:54;98636.28;;;20.01;57.29
50057;BME280;36875;49.468;11.200;2023-09-30T01:50:19;98630.00;;;20.01;57.48
50057;BME280;36875;49.468;11.200;2023-09-30T01:52:45;98629.22;;;20.00;57.38
50057;BME280;36875;49.468;11.200;2023-09-30T01:55:11;98630.00;;;20.01;57.44
50057;BME280;36875;49.468;11.200;2023-09-30T01:57:38;98630.00;;;20.01;57.49
50057;BME280;36875;49.468;11.200;2023-09-30T02:00:04;98629.22;;;20.00;57.29
50057;BME280;36875;49.468;11.200;2023-09-30T02:02:30;98632.75;;;20.01;57.45
50057;BME280;36875;49.468;11.200;2023-09-30T02:04:55;98634.66;;;20.00;57.18
50057;BME280;36875;49.468;11.200;2023-09-30T02:07:22;98646.41;;;20.01;57.51
50057;BME280;36875;49.468;11.200;2023-09-30T02:09:47;98634.66;;;20.00;57.33
50057;BME280;36875;49.468;11.200;2023-09-30T02:12:14;98636.59;;;20.00;57.27
50057;BME280;36875;49.468;11.200;2023-09-30T02:14:41;98632.22;;;19.99;57.31
50057;BME280;36875;49.468;11.200;2023-09-30T02:17:06;98639.34;;;20.00;57.15
50057;BME280;36875;49.468;11.200;2023-09-30T02:19:32;98644.78;;;20.00;57.21
50057;BME280;36875;49.468;11.200;2023-09-30T02:21:59;98642.88;;;20.00;57.25
50057;BME280;36875;49.468;11.200;2023-09-30T02:24:24;98642.06;;;20.00;57.32
50057;BME280;36875;49.468;11.200;2023-09-30T02:26:50;98643.16;;;19.99;57.30
50057;BME280;36875;49.468;11.200;2023-09-30T02:29:16;98642.34;;;19.98;57.39
50057;BME280;36875;49.468;11.200;2023-09-30T02:31:42;98637.69;;;19.99;57.39
50057;BME280;36875;49.468;11.200;2023-09-30T02:34:08;98637.69;;;19.99;57.34
50057;BME280;36875;49.468;11.200;2023-09-30T02:36:33;98637.69;;;19.99;57.55
50057;BME280;36875;49.468;11.200;2023-09-30T02:39:03;98636.09;;;19.98;57.49
50057;BME280;36875;49.468;11.200;2023-09-30T02:41:28;98632.22;;;19.99;57.42
50057;BME280;36875;49.468;11.200;2023-09-30T02:43:54;98639.63;;;19.98;57.33
50057;BME280;36875;49.468;11.200;2023-09-30T02:46:19;98641.53;;;19.98;57.33
50057;BME280;36875;49.468;11.200;2023-09-30T02:48:46;98650.25;;;20.00;57.57
50057;BME280;36875;49.468;11.200;2023-09-30T02:51:12;98656.00;;;19.98;57.55
50057;BME280;36875;49.468;11.200;2023-09-30T02:53:37;98663.41;;;19.98;57.38
50057;BME280;36875;49.468;11.200;2023-09-30T02:56:03;98668.88;;;19.98;57.33
50057;BME280;36875;49.468;11.200;2023-09-30T02:58:29;98663.41;;;19.98;57.40
50057;BME280;36875;49.468;11.200;2023-09-30T03:00:55;98675.94;;;19.99;57.26
50057;BME280;36875;49.468;11.200;2023-09-30T03:03:21;98664.50;;;19.97;57.34
50057;BME280;36875;49.468;11.200;2023-09-30T03:05:48;98659.84;;;19.97;57.16
50057;BME280;36875;49.468;11.200;2023-09-30T03:08:15;98655.50;;;19.96;57.32
50057;BME280;36875;49.468;11.200;2023-09-30T03:10:41;98650.03;;;19.96;57.23
50057;BME280;36875;49.468;11.200;2023-09-30T03:13:06;98656.31;;;19.97;57.34
50057;BME280;36875;49.468;11.200;2023-09-30T03:15:34;98652.47;;;19.98;57.39
50057;BME280;36875;49.468;11.200;2023-09-30T03:18:00;98652.47;;;19.98;57.37
50057;BME280;36875;49.468;11.200;2023-09-30T03:20:25;98660.66;;;19.98;57.32
50057;BME280;36875;49.468;11.200;2023-09-30T03:22:52;98660.13;;;19.96;57.33
50057;BME280;36875;49.468;11.200;2023-09-30T03:25:19;98660.66;;;19.98;57.34
50057;BME280;36875;49.468;11.200;2023-09-30T03:27:46;98656.31;;;19.97;57.09
50057;BME280;36875;49.468;11.200;2023-09-30T03:30:13;98667.22;;;19.97;57.38
50057;BME280;36875;49.468;11.200;2023-09-30T03:32:39;98667.22;;;19.97;57.16
50057;BME280;36875;49.468;11.200;2023-09-30T03:35:04;98669.16;;;19.96;57.51
50057;BME280;36875;49.468;11.200;2023-09-30T03:37:31;98663.69;;;19.96;57.31
50057;BME280;36875;49.468;11.200;2023-09-30T03:39:58;98668.31;;;19.96;57.38
50057;BME280;36875;49.468;11.200;2023-09-30T03:42:24;98672.69;;;19.97;57.14
50057;BME280;36875;49.468;11.200;2023-09-30T03:44:49;98678.16;;;19.97;57.37
50057;BME280;36875;49.468;11.200;2023-09-30T03:47:15;98676.50;;;19.96;57.28
50057;BME280;36875;49.468;11.200;2023-09-30T03:49:41;98685.25;;;19.98;57.29
50057;BME280;36875;49.468;11.200;2023-09-30T03:52:07;98692.63;;;19.97;57.37
50057;BME280;36875;49.468;11.200;2023-09-30T03:54:33;98685.53;;;19.96;57.34
50057;BME280;36875;49.468;11.200;2023-09-30T03:57:00;98689.38;;;19.95;57.35
50057;BME280;36875;49.468;11.200;2023-09-30T03:59:26;98685.53;;;19.96;57.35
50057;BME280;36875;49.468;11.200;2023-09-30T04:01:51;98692.91;;;19.96;57.42
50057;BME280;36875;49.468;11.200;2023-09-30T04:04:18;98696.75;;;19.95;57.34
50057;BME280;36875;49.468;11.200;2023-09-30T04:06:44;98702.22;;;19.95;57.23
50057;BME280;36875;49.468;11.200;2023-09-30T04:09:12;98708.50;;;19.95;57.45
50057;BME280;36875;49.468;11.200;2023-09-30T04:11:38;98709.28;;;19.96;57.26
50057;BME280;36875;49.468;11.200;2023-09-30T04:14:06;98705.47;;;19.97;57.44
50057;BME280;36875;49.468;11.200;2023-09-30T04:16:33;98707.69;;;19.95;57.35
50057;BME280;36875;49.468;11.200;2023-09-30T04:18:59;98713.16;;;19.95;57.35
50057;BME280;36875;49.468;11.200;2023-09-30T04:21:25;98713.97;;;19.95;57.24
50057;BME280;36875;49.468;11.200;2023-09-30T04:23:53;98712.03;;;19.96;57.32
50057;BME280;36875;49.468;11.200;2023-09-30T04:26:18;98712.34;;;19.94;57.06
50057;BME280;36875;49.468;11.200;2023-09-30T04:28:44;98715.88;;;19.95;57.17
50057;BME280;36875;49.468;11.200;2023-09-30T04:31:11;98719.41;;;19.95;57.05
50057;BME280;36875;49.468;11.200;2023-09-30T04:33:38;98724.06;;;19.95;57.27
50057;BME280;36875;49.468;11.200;2023-09-30T04:36:05;98724.06;;;19.95;57.32
50057;BME280;36875;49.468;11.200;2023-09-30T04:38:33;98724.06;;;19.95;57.41
50057;BME280;36875;49.468;11.200;2023-09-30T04:40:58;98729.53;;;19.95;57.47
50057;BME280;36875;49.468;11.200;2023-09-30T04:43:26;98732.28;;;19.95;57.27
50057;BME280;36875;49.468;11.200;2023-09-30T04:45:54;98739.66;;;19.94;57.18
50057;BME280;36875;49.468;11.200;2023-09-30T04:48:23;98739.66;;;19.94;57.28
50057;BME280;36875;49.468;11.200;2023-09-30T04:50:48;98745.13;;;19.94;57.45
50057;BME280;36875;49.468;11.200;2023-09-30T04:53:14;98745.41;;;19.93;57.21
50057;BME280;36875;49.468;11.200;2023-09-30T04:55:42;98744.28;;;19.94;57.42
50057;BME280;36875;49.468;11.200;2023-09-30T04:58:08;98754.41;;;19.93;57.33
50057;BME280;36875;49.468;11.200;2023-09-30T05:00:34;98757.94;;;19.94;57.41
50057;BME280;36875;49.468;11.200;2023-09-30T05:03:00;98759.06;;;19.93;57.46
50057;BME280;36875;49.468;11.200;2023-09-30T05:05:27;98760.69;;;19.94;57.23
50057;BME280;36875;49.468;11.200;2023-09-30T05:07:53;98761.53;;;19.94;57.45
50057;BME280;36875;49.468;11.200;2023-09-30T05:10:19;98772.44;;;19.94;57.28
50057;BME280;36875;49.468;11.200;2023-09-30T05:12:45;98779.81;;;19.94;57.36
50057;BME280;36875;49.468;11.200;2023-09-30T05:15:11;98780.63;;;19.94;57.34
50057;BME280;36875;49.468;11.200;2023-09-30T05:17:37;98779.81;;;19.94;57.36
50057;BME280;36875;49.468;11.200;2023-09-30T05:20:02;98784.47;;;19.93;57.22
50057;BME280;36875;49.468;11.200;2023-09-30T05:22:33;98786.38;;;19.93;57.48
50057;BME280;36875;49.468;11.200;2023-09-30T05:24:59;98794.59;;;19.93;57.13
50057;BME280;36875;49.468;11.200;2023-09-30T05:27:25;98794.59;;;19.93;57.28
50057;BME280;36875;49.468;11.200;2023-09-30T05:29:51;98791.84;;;19.93;57.12
50057;BME280;36875;49.468;11.200;2023-09-30T05:32:17;98794.59;;;19.93;57.16
50057;BME280;36875;49.468;11.200;2023-09-30T05:34:43;98794.59;;;19.93;57.41
50057;BME280;36875;49.468;11.200;2023-09-30T05:37:09;98807.41;;;19.92;57.38
50057;BME280;36875;49.468;11.200;2023-09-30T05:39:36;98806.59;;;19.92;57.41
50057;BME280;36875;49.468;11.200;2023-09-30T05:42:02;98823.00;;;19.92;57.37
50057;BME280;36875;49.468;11.200;2023-09-30T05:44:29;98816.44;;;19.93;57.27
50057;BME280;36875;49.468;11.200;2023-09-30T05:46:54;98825.44;;;19.93;57.31
50057;BME280;36875;49.468;11.200;2023-09-30T05:49:20;98823.00;;;19.92;57.60
50057;BME280;36875;49.468;11.200;2023-09-30T05:51:45;98833.91;;;19.92;57.54
50057;BME280;36875;49.468;11.200;2023-09-30T05:54:12;98829.25;;;19.92;57.36
50057;BME280;36875;49.468;11.200;2023-09-30T05:56:39;98828.47;;;19.92;57.38
50057;BME280;36875;49.468;11.200;2023-09-30T05:59:05;98823.00;;;19.92;57.51
50057;BME280;36875;49.468;11.200;2023-09-30T06:01:32;98831.19;;;19.92;57.25
50057;BME280;36875;49.468;11.200;2023-09-30T06:03:58;98832.31;;;19.91;57.50
50057;BME280;36875;49.468;11.200;2023-09-30T06:06:23;98833.13;;;19.91;57.30
50057;BME280;36875;49.468;11.200;2023-09-30T06:08:51;98835.03;;;19.91;57.50
50057;BME280;36875;49.468;11.200;2023-09-30T06:11:17;98832.31;;;19.91;57.05
50057;BME280;36875;49.468;11.200;2023-09-30T06:13:44;98834.19;;;19.90;57.23
50057;BME280;36875;49.468;11.200;2023-09-30T06:16:10;98829.56;;;19.91;57.05
50057;BME280;36875;49.468;11.200;2023-09-30T06:18:36;98839.66;;;19.90;57.41
50057;BME280;36875;49.468;11.200;2023-09-30T06:21:02;98840.50;;;19.91;57.31
50057;BME280;36875;49.468;11.200;2023-09-30T06:23:29;98838.88;;;19.90;57.31
50057;BME280;36875;49.468;11.200;2023-09-30T06:25:55;98842.41;;;19.90;57.32
50057;BME280;36875;49.468;11.200;2023-09-30T06:28:21;98855.25;;;19.90;57.12
50057;BME280;36875;49.468;11.200;2023-09-30T06:30:52;98857.97;;;19.90;57.32
50057;BME280;36875;49.468;11.200;2023-09-30T06:33:18;98855.25;;;19.90;57.29
50057;BME280;36875;49.468;11.200;2023-09-30T06:35:43;98861.81;;;19.89;57.39
50057;BME280;36875;49.468;11.200;2023-09-30T06:38:16;98867.25;;;19.89;57.25
50057;BME280;36875;49.468;11.200;2023-09-30T06:40:42;98874.38;;;19.90;57.42
50057;BME280;36875;49.468;11.200;2023-09-30T06:43:08;98874.38;;;19.90;57.26
50057;BME280;36875;49.468;11.200;2023-09-30T06:45:33;98876.31;;;19.89;57.13
50057;BME280;36875;49.468;11.200;2023-09-30T06:48:00;98875.19;;;19.90;57.31
50057;BME280;36875;49.468;11.200;2023-09-30T06:50:26;98866.97;;;19.90;57.21
50057;BME280;36875;49.468;11.200;2023-09-30T06:52:51;98868.91;;;19.90;57.34
50057;BME280;36875;49.468;11.200;2023-09-30T06:55:17;98879.84;;;19.90;57.23
50057;BME280;36875;49.468;11.200;2023-09-30T06:57:42;98883.66;;;19.89;57.50
50057;BME280;36875;49.468;11.200;2023-09-30T07:00:11;98891.03;;;19.88;57.15
50057;BME280;36875;49.468;11.200;2023-09-30T07:02:37;98885.31;;;19.90;57.26
50057;BME280;36875;49.468;11.200;2023-09-30T07:05:07;98886.09;;;19.90;57.18
50057;BME280;36875;49.468;11.200;2023-09-30T07:07:32;98885.31;;;19.90;57.05
50057;BME280;36875;49.468;11.200;2023-09-30T07:09:58;98889.69;;;19.91;57.20
50057;BME280;36875;49.468;11.200;2023-09-30T07:12:23;98889.69;;;19.91;57.30
50057;BME280;36875;49.468;11.200;2023-09-30T07:14:49;98892.69;;;19.89;57.25
50057;BME280;36875;49.468;11.200;2023-09-30T07:17:14;98895.13;;;19.91;57.25
50057;BME280;36875;49.468;11.200;2023-09-30T07:19:40;98897.88;;;19.91;57.37
50057;BME280;36875;49.468;11.200;2023-09-30T07:22:07;98895.41;;;19.89;57.21
50057;BME280;36875;49.468;11.200;2023-09-30T07:24:32;98897.03;;;19.90;57.32
50057;BME280;36875;49.468;11.200;2023-09-30T07:26:58;98902.50;;;19.90;57.43
50057;BME280;36875;49.468;11.200;2023-09-30T07:29:24;98918.88;;;19.90;57.24
50057;BME280;36875;49.468;11.200;2023-09-30T07:31:49;98917.00;;;19.91;57.32
50057;BME280;36875;49.468;11.200;2023-09-30T07:34:16;98913.44;;;19.90;57.50
50057;BME280;36875;49.468;11.200;2023-09-30T07:36:41;98921.63;;;19.90;57.37
50057;BME280;36875;49.468;11.200;2023-09-30T07:39:09;98924.34;;;19.90;57.63
50057;BME280;36875;49.468;11.200;2023-09-30T07:41:34;98922.47;;;19.91;57.63
50057;BME280;36875;49.468;11.200;2023-09-30T07:44:00;98920.53;;;19.91;57.83
50057;BME280;36875;49.468;11.200;2023-09-30T07:46:25;98920.53;;;19.91;57.99
50057;BME280;36875;49.468;11.200;2023-09-30T07:48:51;98936.66;;;19.93;57.83
50057;BME280;36875;49.468;11.200;2023-09-30T07:51:17;98936.38;;;19.94;57.68
50057;BME280;36875;49.468;11.200;2023-09-30T07:53:43;98940.94;;;19.99;57.84
50057;BME280;36875;49.468;11.200;2023-09-30T07:56:10;98939.88;;;20.00;57.69
50057;BME280;36875;49.468;11.200;2023-09-30T07:58:35;98936.59;;;19.98;58.22
50057;BME280;36875;49.468;11.200;2023-09-30T08:01:01;98938.22;;;19.99;58.05
50057;BME280;36875;49.468;11.200;2023-09-30T08:03:26;98939.03;;;19.99;58.15
50057;BME280;36875;49.468;11.200;2023-09-30T08:05:52;98939.03;;;19.99;58.02
50057;BME280;36875;49.468;11.200;2023-09-30T08:08:17;98932.75;;;19.99;57.82
50057;BME280;36875;49.468;11.200;2023-09-30T08:10:43;98942.59;;;20.00;58.04
50057;BME280;36875;49.468;11.200;2023-09-30T08:13:10;98936.59;;;19.98;57.94
50057;BME280;36875;49.468;11.200;2023-09-30T08:15:35;98940.94;;;19.99;57.81
50057;BME280;36875;49.468;11.200;2023-09-30T08:18:03;98940.66;;;20.00;57.83
50057;BME280;36875;49.468;11.200;2023-09-30T08:20:29;98941.47;;;20.01;58.07
50057;BME280;36875;49.468;11.200;2023-09-30T08:22:55;98947.75;;;20.01;57.99
50057;BME280;36875;49.468;11.200;2023-09-30T08:25:21;98945.84;;;20.02;58.34
50057;BME280;36875;49.468;11.200;2023-09-30T08:27:46;98948.00;;;20.05;58.16
50057;BME280;36875;49.468;11.200;2023-09-30T08:30:16;98951.56;;;20.06;58.32
50057;BME280;36875;49.468;11.200;2023-09-30T08:32:41;98952.09;;;20.08;58.08
50057;BME280;36875;49.468;11.200;2023-09-30T08:35:08;98944.97;;;20.07;58.17
50057;BME280;36875;49.468;11.200;2023-09-30T08:37:34;98942.53;;;20.05;58.08
50057;BME280;36875;49.468;11.200;2023-09-30T08:40:00;98947.19;;;20.05;57.95
50057;BME280;36875;49.468;11.200;2023-09-30T08:42:27;98948.88;;;20.00;57.93
50057;BME280;36875;49.468;11.200;2023-09-30T08:44:58;98954.56;;;20.04;58.14
50057;BME280;36875;49.468;11.200;2023-09-30T08:47:26;98951.03;;;20.03;58.45
50057;BME280;36875;49.468;11.200;2023-09-30T08:49:56;98958.41;;;20.03;57.93
50057;BME280;36875;49.468;11.200;2023-09-30T08:52:31;98949.13;;;20.04;58.07
50057;BME280;36875;49.468;11.200;2023-09-30T08:54:58;98948.59;;;20.02;57.75
50057;BME280;36875;49.468;11.200;2023-09-30T08:57:24;98948.00;;;20.05;57.90
50057;BME280;36875;49.468;11.200;2023-09-30T08:59:53;98936.25;;;20.05;57.61
50057;BME280;36875;49.468;11.200;2023-09-30T09:02:18;98938.19;;;20.04;57.60
50057;BME280;36875;49.468;11.200;2023-09-30T09:04:45;98937.06;;;20.05;57.63
50057;BME280;36875;49.468;11.200;2023-09-30T09:07:20;98944.44;;;20.05;57.66
50057;BME280;36875;49.468;11.200;2023-09-30T09:10:04;98945.25;;;20.05;57.58
50057;BME280;36875;49.468;11.200;2023-09-30T09:12:30;98944.19;;;20.06;57.52
50057;BME280;36875;49.468;11.200;2023-09-30T09:14:56;98943.09;;;20.07;57.27
50057;BME280;36875;49.468;11.200;2023-09-30T09:17:21;98944.19;;;20.06;57.62
50057;BME280;36875;49.468;11.200;2023-09-30T09:19:58;98940.34;;;20.07;57.60
50057;BME280;36875;49.468;11.200;2023-09-30T09:22:37;98930.50;;;20.06;57.50
50057;BME280;36875;49.468;11.200;2023-09-30T09:25:03;98928.59;;;20.07;57.65
50057;BME280;36875;49.468;11.200;2023-09-30T09:27:33;98934.88;;;20.07;57.70
50057;BME280;36875;49.468;11.200;2023-09-30T09:30:14;98928.81;;;20.10;57.72
50057;BME280;36875;49.468;11.200;2023-09-30T09:32:51;98921.16;;;20.12;58.02
50057;BME280;36875;49.468;11.200;2023-09-30T09:35:21;98922.53;;;20.15;57.98
50057;BME280;36875;49.468;11.200;2023-09-30T09:37:54;98932.03;;;20.17;57.94
50057;BME280;36875;49.468;11.200;2023-09-30T09:40:23;98928.75;;;20.20;58.11
50057;BME280;36875;49.468;11.200;2023-09-30T09:42:53;98932.28;;;20.21;58.09
50057;BME280;36875;49.468;11.200;2023-09-30T09:45:21;98929.28;;;20.22;58.27
50057;BME280;36875;49.468;11.200;2023-09-30T09:47:48;98939.63;;;20.26;58.33
50057;BME280;36875;49.468;11.200;2023-09-30T09:50:14;98933.63;;;20.23;58.10
50057;BME280;36875;49.468;11.200;2023-09-30T09:52:42;98934.75;;;20.22;58.41
50057;BME280;36875;49.468;11.200;2023-09-30T09:55:10;98924.63;;;20.23;58.18
50057;BME280;36875;49.468;11.200;2023-09-30T09:57:35;98934.47;;;20.24;57.85
50057;BME280;36875;49.468;11.200;2023-09-30T10:00:02;98929.50;;;20.26;58.08
50057;BME280;36875;49.468;11.200;2023-09-30T10:02:32;98919.09;;;20.28;58.11
50057;BME280;36875;49.468;11.200;2023-09-30T10:04:58;98928.06;;;20.34;57.81
50057;BME280;36875;49.468;11.200;2023-09-30T10:07:29;98921.50;;;20.35;58.37
50057;BME280;36875;49.468;11.200;2023-09-30T10:09:59;98928.88;;;20.34;58.38
50057;BME280;36875;49.468;11.200;2023-09-30T10:12:26;98932.91;;;20.42;58.51
50057;BME280;36875;49.468;11.200;2023-09-30T10:14:52;98934.50;;;20.48;58.78
50057;BME280;36875;49.468;11.200;2023-09-30T10:17:18;98944.25;;;20.54;58.45
50057;BME280;36875;49.468;11.200;2023-09-30T10:20:05;98946.13;;;20.59;58.51
50057;BME280;36875;49.468;11.200;2023-09-30T10:22:32;98946.94;;;20.59;58.83
50057;BME280;36875;49.468;11.200;2023-09-30T10:24:59;98949.13;;;20.63;58.78
50057;BME280;36875;49.468;11.200;2023-09-30T10:27:34;98959.28;;;20.57;58.96
50057;BME280;36875;49.468;11.200;2023-09-30T10:30:07;98956.88;;;20.50;58.91
50057;BME280;36875;49.468;11.200;2023-09-30T10:33:12;98961.25;;;20.51;58.92
50057;BME280;36875;49.468;11.200;2023-09-30T10:35:46;98965.66;;;20.47;58.76
50057;BME280;36875;49.468;11.200;2023-09-30T10:38:37;98966.25;;;20.44;58.58
50057;BME280;36875;49.468;11.200;2023-09-30T10:41:04;98969.28;;;20.42;58.58
50057;BME280;36875;49.468;11.200;2023-09-30T10:43:34;98966.53;;;20.42;58.77
50057;BME280;36875;49.468;11.200;2023-09-30T10:46:01;98964.59;;;20.43;58.64
50057;BME280;36875;49.468;11.200;2023-09-30T10:48:34;98965.72;;;20.42;58.83
50057;BME280;36875;49.468;11.200;2023-09-30T10:51:01;98973.63;;;20.44;58.97
50057;BME280;36875;49.468;11.200;2023-09-30T10:53:27;98965.72;;;20.42;58.60
50057;BME280;36875;49.468;11.200;2023-09-30T10:55:54;98965.72;;;20.42;58.79
50057;BME280;36875;49.468;11.200;2023-09-30T10:58:22;98960.25;;;20.42;58.88
50057;BME280;36875;49.468;11.200;2023-09-30T11:01:03;98960.53;;;20.40;58.80
50057;BME280;36875;49.468;11.200;2023-09-30T11:03:29;98950.41;;;20.41;58.63
50057;BME280;36875;49.468;11.200;2023-09-30T11:05:55;98949.59;;;20.40;58.73
50057;BME280;36875;49.468;11.200;2023-09-30T11:08:21;98953.16;;;20.41;58.84
50057;BME280;36875;49.468;11.200;2023-09-30T11:10:50;98946.59;;;20.42;58.82
50057;BME280;36875;49.468;11.200;2023-09-30T11:13:16;98941.13;;;20.42;58.82
50057;BME280;36875;49.468;11.200;2023-09-30T11:15:43;98935.66;;;20.42;58.70
50057;BME280;36875;49.468;11.200;2023-09-30T11:18:16;98931.78;;;20.43;58.85
50057;BME280;36875;49.468;11.200;2023-09-30T11:20:42;98931.00;;;20.42;58.75
50057;BME280;36875;49.468;11.200;2023-09-30T11:23:10;98937.25;;;20.43;58.83
50057;BME280;36875;49.468;11.200;2023-09-30T11:25:36;98927.13;;;20.44;58.69
50057;BME280;36875;49.468;11.200;2023-09-30T11:28:13;98926.84;;;20.45;58.76
50057;BME280;36875;49.468;11.200;2023-09-30T11:30:54;98919.47;;;20.46;58.93
50057;BME280;36875;49.468;11.200;2023-09-30T11:33:20;98918.38;;;20.47;58.83
50057;BME280;36875;49.468;11.200;2023-09-30T11:35:59;98923.56;;;20.48;58.75
50057;BME280;36875;49.468;11.200;2023-09-30T11:38:26;98923.56;;;20.48;58.67
50057;BME280;36875;49.468;11.200;2023-09-30T11:40:59;98913.41;;;20.49;58.71
50057;BME280;36875;49.468;11.200;2023-09-30T11:43:26;98921.34;;;20.50;58.79
50057;BME280;36875;49.468;11.200;2023-09-30T11:45:51;98917.50;;;20.51;58.86
50057;BME280;36875;49.468;11.200;2023-09-30T11:48:19;98909.84;;;20.53;58.45
50057;BME280;36875;49.468;11.200;2023-09-30T11:50:48;98905.44;;;20.52;58.82
50057;BME280;36875;49.468;11.200;2023-09-30T11:53:17;98915.28;;;20.53;58.55
50057;BME280;36875;49.468;11.200;2023-09-30T11:55:43;98908.13;;;20.57;58.69
50057;BME280;36875;49.468;11.200;2023-09-30T11:58:09;98908.66;;;20.59;58.63
50057;BME280;36875;49.468;11.200;2023-09-30T12:00:35;98917.13;;;20.63;58.49
50057;BME280;36875;49.468;11.200;2023-09-30T12:03:00;98919.28;;;20.66;58.68
50057;BME280;36875;49.468;11.200;2023-09-30T12:05:27;98922.53;;;20.68;58.46
50057;BME280;36875;49.468;11.200;2023-09-30T12:07:54;98921.75;;;20.68;58.53
50057;BME280;36875;49.468;11.200;2023-09-30T12:10:20;98925.84;;;20.65;58.49
50057;BME280;36875;49.468;11.200;2023-09-30T12:12:45;98927.22;;;20.68;58.63
50057;BME280;36875;49.468;11.200;2023-09-30T12:15:11;98924.69;;;20.71;58.54
50057;BME280;36875;49.468;11.200;2023-09-30T12:17:36;98917.31;;;20.72;58.46
50057;BME280;36875;49.468;11.200;2023-09-30T12:20:05;98915.09;;;20.74;58.19
50057;BME280;36875;49.468;11.200;2023-09-30T12:22:33;98907.97;;;20.73;58.14
50057;BME280;36875;49.468;11.200;2023-09-30T12:24:58;98907.75;;;20.69;57.89
50057;BME280;36875;49.468;11.200;2023-09-30T12:27:29;98899.84;;;20.68;57.36
50057;BME280;36875;49.468;11.200;2023-09-30T12:29:54;98894.81;;;20.75;57.30
50057;BME280;36875;49.468;11.200;2023-09-30T12:32:20;98899.78;;;20.73;57.20
50057;BME280;36875;49.468;11.200;2023-09-30T12:34:45;98888.53;;;20.74;57.25
50057;BME280;36875;49.468;11.200;2023-09-30T12:37:11;98893.66;;;20.81;56.77
50057;BME280;36875;49.468;11.200;2023-09-30T12:39:40;98889.28;;;20.80;56.79
50057;BME280;36875;49.468;11.200;2023-09-30T12:42:05;98890.69;;;20.77;56.79
50057;BME280;36875;49.468;11.200;2023-09-30T12:44:34;98885.75;;;20.79;56.82
50057;BME280;36875;49.468;11.200;2023-09-30T12:46:59;98879.75;;;20.77;56.78
50057;BME280;36875;49.468;11.200;2023-09-30T12:49:25;98887.91;;;20.83;56.44